General Aviation Weather

Text Reports

Enter one or more of the following location identifiers separated by a space:

Zip Code, Four-Character ICAO or Three-Character IATA airport codes.

METAR - Aviation Routine Weather Report
KLLJ - Challis, Idaho
Updated at 12:55 AM GMT on July 02, 2015 (6:55 PM MDT):
METAR KLLJ 020055Z AUTO 32015KT 10SM CLR 34/M01 A3002 RMK AO2 SLP086 T03391006
TAF - Terminal Area Forecast
KLLJ - Challis, Idaho
Updated at 12:55 AM GMT on July 02, 2015 (6:55 PM MDT):
No TAF is currently available for this location.
Decoded:
No decoded TAF is available.
PIREP - Pilot Weather Report
KLLJ - Challis, Idaho
Updated at 12:55 AM GMT on July 02, 2015 (6:55 PM MDT):
No PIREP is currently available for this location.
AIRMET - Airmens Meteorological Information
KLLJ - Challis, Idaho
Updated at 12:55 AM GMT on July 02, 2015 (6:55 PM MDT):
No AIRMET is currently available for this location.
SIGMET - Significant Meteorological Information
KLLJ - Challis, Idaho
Updated at 12:55 AM GMT on July 02, 2015 (6:55 PM MDT):
No SIGMET is currently available for this location.
NOTAM - Notice to Airmen
KLLJ - Challis, Idaho
Updated at 12:55 AM GMT on July 02, 2015 (6:55 PM MDT):
No NOTAM is currently available for this location.
Forecast Area
KLLJ - Challis, Idaho
Updated at 12:55 AM GMT on July 02, 2015 (6:55 PM MDT):
No NOTAM is currently available for this location.
Aviation Weather Maps